Airfield :
LOGIN :

Register | Disclaimer

   EN    FR    IT 

 










Legend :    VFR   Marginal VFR   IFR   Intensive IFR   Very Intensive IFR
Visi :
Ceiling :
>= 8 km
>= 3000ft
5 to 8 km
1000 to 3000 ft
1500m to 5 km
500 to 1000 ft
800 to 1500m
200 to 500 ft
< 800m
< 200 ft
Symbols :   Thunderstorms  Fog  Heavy snow  Heavy precipitations  Wind > 20 kt
SIGMETs :     Misc.  Thunderstorms  Icing  Turbulence  Mountain Waves  Volcanic Ashes







- Airport Elevation : 287 ft
- Download approach charts


LFRL - Lanveoc Poulmic

CURRENT METAR :
  • 210900Z AUTO 19006KT 170V240 9999 BKN011 BKN021 19/16 Q1022

EXPIRED METARs :
  • 210830Z AUTO 19006KT 160V220 9999 SCT010 SCT014 19/16 Q1022
  • 210800Z AUTO 18005KT 9999 SCT008 OVC016 18/16 Q1022
  • 210730Z AUTO 17006KT 150V210 9999 BKN006 BKN016 18/17 Q1022
  • 210700Z AUTO 20003KT 170V230 9999 BKN005 BKN009 17/16 Q1022
  • 210630Z AUTO VRB03KT 9999 FEW002 SCT023 17/16 Q1022

Expired Forecast.
No reported NOTAMs for that airfield.



MET'MAP, your aeronautical weather chart ! - Copyright ORBIFLY December 2007 - Disclaimer

ORBIFLY MET'MAP TEAM :

Programming & Development : Alexandra Zaïnal
Concept & Development : Baudouin d'Aumeries
Co-Development & Prog : Marc-Olivier Méhu
Technical & hardware support : Manuel Goepfert

Contact : metmap@orbifly.com




SOURCES & CREDITS :

   NOAA